Time;durP1;ratioP1;P1;durP2;ratioP2;P2;SDS_P1;SDS_P2;PMS_P1;PMS_P2;Temp;Humidity;BMP_temperature;BMP_pressure;BME280_temperature;BME280_humidity;BME280_pressure;Samples;Min_cycle;Max_cycle;Signal;HPM_P1;HPM_P2
2022/12/03 00:01:36;;;;;;;26.40;22.03;;;3.40;99.90;;;;;;5075828;28;20926;-75
2022/12/03 00:04:04;;;;;;;25.90;21.00;;;3.40;99.90;;;;;;5073279;28;21142;-76
2022/12/03 00:06:33;;;;;;;24.40;21.43;;;3.40;99.90;;;;;;5075303;28;20442;-76
2022/12/03 00:09:02;;;;;;;27.60;21.40;;;3.40;99.90;;;;;;5075570;28;20448;-76
2022/12/03 00:11:30;;;;;;;26.20;22.20;;;3.40;99.90;;;;;;5075589;28;20444;-75
2022/12/03 00:13:58;;;;;;;27.47;21.33;;;3.40;99.90;;;;;;5073894;28;20498;-75
2022/12/03 00:16:26;;;;;;;23.80;20.03;;;3.40;99.90;;;;;;5075319;28;20517;-75
2022/12/03 00:18:56;;;;;;;25.83;21.43;;;3.40;99.90;;;;;;5073863;28;20441;-75
2022/12/03 00:21:24;;;;;;;25.43;21.70;;;3.40;99.90;;;;;;5075035;28;20444;-76
2022/12/03 00:23:52;;;;;;;27.30;22.37;;;3.40;99.90;;;;;;5074928;28;20469;-76
2022/12/03 00:26:20;;;;;;;26.70;22.40;;;3.40;99.90;;;;;;5075206;28;20433;-76
2022/12/03 00:28:49;;;;;;;26.80;21.50;;;3.40;99.90;;;;;;5075452;28;20799;-76
2022/12/03 00:31:17;;;;;;;27.17;21.80;;;3.40;99.90;;;;;;5073601;28;20471;-76
2022/12/03 00:33:45;;;;;;;23.87;19.87;;;3.40;99.90;;;;;;5074794;28;20461;-77
2022/12/03 00:36:14;;;;;;;25.20;22.43;;;3.40;99.90;;;;;;5074690;28;20469;-76
2022/12/03 00:38:43;;;;;;;27.60;22.00;;;3.40;99.90;;;;;;5075036;28;20831;-75
2022/12/03 00:41:11;;;;;;;28.67;22.73;;;3.40;99.90;;;;;;5073374;28;20445;-76
2022/12/03 00:43:39;;;;;;;27.13;23.03;;;3.40;99.90;;;;;;5074566;28;20460;-76
2022/12/03 00:46:07;;;;;;;26.30;22.40;;;3.40;99.90;;;;;;5073322;28;20509;-75
2022/12/03 00:48:35;;;;;;;24.57;21.60;;;3.40;99.90;;;;;;5074777;28;20463;-76
2022/12/03 00:51:03;;;;;;;24.17;20.67;;;3.40;99.90;;;;;;5075139;28;20510;-76
2022/12/03 00:53:32;;;;;;;26.17;22.27;;;3.40;99.90;;;;;;5072357;28;20523;-76
2022/12/03 00:56:01;;;;;;;24.40;21.00;;;3.40;99.90;;;;;;5074250;28;20465;-76
2022/12/03 00:58:29;;;;;;;27.07;22.00;;;3.40;99.90;;;;;;5074349;28;20493;-75
2022/12/03 01:00:58;;;;;;;26.50;22.70;;;3.40;99.90;;;;;;5074349;28;20455;-76
2022/12/03 01:03:26;;;;;;;24.47;20.63;;;3.40;99.90;;;;;;5074138;28;20457;-76
2022/12/03 01:05:54;;;;;;;26.30;23.17;;;3.40;99.90;;;;;;5072889;28;20489;-76
2022/12/03 01:08:22;;;;;;;27.27;21.87;;;3.40;99.90;;;;;;5074125;28;20437;-76
2022/12/03 01:10:51;;;;;;;25.80;22.30;;;3.40;99.90;;;;;;5072810;28;20456;-76
2022/12/03 01:13:19;;;;;;;26.67;22.93;;;3.40;99.90;;;;;;5072727;28;20437;-76
2022/12/03 01:15:47;;;;;;;26.80;21.57;;;3.30;99.90;;;;;;5073858;28;20896;-76
2022/12/03 01:18:15;;;;;;;26.70;22.37;;;3.30;99.90;;;;;;5073938;28;20808;-76
2022/12/03 01:20:44;;;;;;;26.97;21.50;;;3.30;99.90;;;;;;5073891;28;20506;-76
2022/12/03 01:23:13;;;;;;;24.83;22.00;;;3.30;99.90;;;;;;5073984;28;20448;-76
2022/12/03 01:25:41;;;;;;;28.50;23.23;;;3.30;99.90;;;;;;5073784;28;20462;-76
2022/12/03 01:28:10;;;;;;;27.33;23.37;;;3.30;99.90;;;;;;5073724;28;20479;-76
2022/12/03 01:33:20;;;;;;;26.30;22.90;;;3.30;99.90;;;;;;5073349;28;20461;-76
2022/12/03 01:35:48;;;;;;;29.27;23.37;;;3.30;99.90;;;;;;5073783;28;20464;-76
2022/12/03 01:38:16;;;;;;;25.93;21.60;;;3.30;99.90;;;;;;5072409;28;20447;-76
2022/12/03 01:40:44;;;;;;;28.57;23.70;;;3.20;99.90;;;;;;5072341;28;20449;-76
2022/12/03 01:43:14;;;;;;;27.47;22.33;;;3.30;99.90;;;;;;5071329;28;20984;-76
2022/12/03 01:45:42;;;;;;;25.33;20.70;;;3.20;99.90;;;;;;5073536;28;20443;-76
2022/12/03 01:48:15;;;;;;;29.17;25.87;;;3.30;99.90;;;;;;5073344;28;20505;-76
2022/12/03 01:50:44;;;;;;;28.53;23.53;;;3.30;99.90;;;;;;5073462;28;20436;-77
2022/12/03 01:53:15;;;;;;;27.27;23.20;;;3.20;99.90;;;;;;5072078;28;20962;-76
2022/12/03 01:55:43;;;;;;;29.40;22.90;;;3.20;99.90;;;;;;5072203;28;20449;-76
2022/12/03 01:58:20;;;;;;;28.50;23.80;;;3.20;99.90;;;;;;5074533;28;20430;-76
2022/12/03 02:00:48;;;;;;;27.67;23.03;;;3.20;99.90;;;;;;5073689;28;20416;-77
2022/12/03 02:03:20;;;;;;;29.73;23.87;;;3.20;99.90;;;;;;5073526;28;20453;-76
2022/12/03 02:05:48;;;;;;;29.97;24.23;;;3.20;99.90;;;;;;5073602;28;20433;-77
2022/12/03 02:08:27;;;;;;;25.63;22.80;;;3.20;99.90;;;;;;5072135;28;20441;-77
2022/12/03 02:10:56;;;;;;;27.37;22.53;;;3.20;99.90;;;;;;5073577;28;20768;-76
2022/12/03 02:13:26;;;;;;;28.90;23.53;;;3.20;99.90;;;;;;5071911;28;20478;-77
2022/12/03 02:15:54;;;;;;;30.03;24.77;;;3.20;99.90;;;;;;5073196;28;20445;-76
2022/12/03 02:18:23;;;;;;;30.37;24.37;;;3.10;99.90;;;;;;5073342;28;20480;-76
2022/12/03 02:21:00;;;;;;;29.43;24.63;;;3.10;99.90;;;;;;5074375;28;20437;-76
2022/12/03 02:23:36;;;;;;;28.03;24.20;;;3.10;99.90;;;;;;5075962;28;20477;-77
2022/12/03 02:26:06;;;;;;;31.03;23.97;;;3.10;99.90;;;;;;5077638;28;20419;-77
2022/12/03 02:28:34;;;;;;;29.53;26.17;;;3.10;99.90;;;;;;5077187;28;20494;-77
2022/12/03 02:31:04;;;;;;;31.23;25.13;;;3.10;99.90;;;;;;5075787;28;21023;-77
2022/12/03 02:33:32;;;;;;;30.13;24.97;;;3.10;99.90;;;;;;5074830;28;20477;-76
2022/12/03 02:36:00;;;;;;;30.43;25.10;;;3.10;99.90;;;;;;5077056;28;20508;-76
2022/12/03 02:38:34;;;;;;;29.60;24.43;;;3.10;99.90;;;;;;5075708;28;21023;-77
2022/12/03 02:41:07;;;;;;;27.90;24.53;;;3.00;99.90;;;;;;5077639;28;20886;-77
2022/12/03 02:43:35;;;;;;;30.50;24.90;;;3.10;99.90;;;;;;5075806;28;20522;-76
2022/12/03 02:46:05;;;;;;;29.40;26.13;;;3.10;99.90;;;;;;5077133;28;20452;-77
2022/12/03 02:48:36;;;;;;;27.80;24.17;;;3.10;99.90;;;;;;5077230;28;20423;-77
2022/12/03 02:51:08;;;;;;;31.70;26.80;;;3.00;99.90;;;;;;5076880;28;20423;-76
2022/12/03 02:53:41;;;;;;;32.40;26.33;;;3.00;99.90;;;;;;5077003;28;20534;-76
2022/12/03 02:56:13;;;;;;;34.40;27.93;;;3.00;99.90;;;;;;5076971;28;20434;-77
2022/12/03 02:58:43;;;;;;;29.40;26.03;;;3.00;99.90;;;;;;5076622;28;20466;-77
2022/12/03 03:01:11;;;;;;;34.13;27.50;;;3.00;99.90;;;;;;5076136;28;20437;-76
2022/12/03 03:03:40;;;;;;;31.83;27.33;;;3.00;99.90;;;;;;5075233;28;20935;-77
2022/12/03 03:06:09;;;;;;;31.97;26.57;;;3.00;99.90;;;;;;5075255;28;20502;-76
2022/12/03 03:08:39;;;;;;;34.27;27.23;;;3.00;99.90;;;;;;5076687;28;20441;-77
2022/12/03 03:11:07;;;;;;;29.63;26.20;;;3.00;99.90;;;;;;5075134;28;20441;-77
2022/12/03 03:13:37;;;;;;;33.10;27.23;;;3.00;99.90;;;;;;5075599;28;20471;-76
2022/12/03 03:16:07;;;;;;;33.70;27.73;;;3.00;99.90;;;;;;5076618;28;20417;-76
2022/12/03 03:18:36;;;;;;;32.03;26.83;;;3.00;99.90;;;;;;5074915;28;21001;-76
2022/12/03 03:21:05;;;;;;;32.80;26.83;;;2.90;99.90;;;;;;5076460;28;20443;-76
2022/12/03 03:23:33;;;;;;;31.33;26.10;;;2.90;99.90;;;;;;5074034;28;20484;-76
2022/12/03 03:26:04;;;;;;;32.93;27.30;;;2.90;99.90;;;;;;5074852;28;20511;-76
2022/12/03 03:28:37;;;;;;;32.00;25.83;;;2.90;99.90;;;;;;5074908;28;20544;-76
2022/12/03 03:31:08;;;;;;;34.00;26.90;;;2.80;99.90;;;;;;5075943;28;20451;-76
2022/12/03 03:33:37;;;;;;;32.17;27.17;;;2.80;99.90;;;;;;5074718;28;20510;-76
2022/12/03 03:36:06;;;;;;;29.90;25.17;;;2.80;99.90;;;;;;5075941;28;20451;-76
2022/12/03 03:38:36;;;;;;;33.67;28.20;;;2.80;99.90;;;;;;5076537;28;20471;-76
2022/12/03 03:41:07;;;;;;;36.37;28.93;;;2.80;99.90;;;;;;5080417;28;20995;-76
2022/12/03 03:43:39;;;;;;;34.67;27.03;;;2.70;99.90;;;;;;5078026;28;20558;-76
2022/12/03 03:46:07;;;;;;;34.07;26.50;;;2.70;99.90;;;;;;5075284;28;20801;-76
2022/12/03 03:48:36;;;;;;;34.63;24.70;;;2.70;99.90;;;;;;5075954;28;20440;-76
2022/12/03 03:51:08;;;;;;;32.87;27.80;;;2.70;99.90;;;;;;5075915;28;20442;-76
2022/12/03 03:53:37;;;;;;;30.97;25.53;;;2.60;99.90;;;;;;5075958;28;20456;-76
2022/12/03 03:56:06;;;;;;;31.20;26.20;;;2.60;99.90;;;;;;5075592;28;20955;-76
2022/12/03 03:58:36;;;;;;;30.87;25.37;;;2.60;99.90;;;;;;5075986;28;20475;-76
2022/12/03 04:01:04;;;;;;;33.57;26.23;;;2.60;99.90;;;;;;5074316;28;20455;-76
2022/12/03 04:03:32;;;;;;;33.20;26.47;;;2.60;99.90;;;;;;5074239;28;20531;-76
2022/12/03 04:06:00;;;;;;;36.53;27.43;;;2.60;99.90;;;;;;5074091;28;20451;-76
2022/12/03 04:08:28;;;;;;;35.17;27.23;;;2.50;99.90;;;;;;5074080;28;20864;-76
2022/12/03 04:13:43;;;;;;;33.87;26.73;;;2.50;99.90;;;;;;5073277;28;20477;-76
2022/12/03 04:16:11;;;;;;;36.20;28.30;;;2.50;99.90;;;;;;5073938;28;20441;-76
2022/12/03 04:18:45;;;;;;;35.97;27.80;;;2.50;99.90;;;;;;5073827;28;20469;-76
2022/12/03 04:24:01;;;;;;;36.60;27.90;;;2.50;99.90;;;;;;5073837;28;21087;-76
2022/12/03 04:29:19;;;;;;;38.90;28.93;;;2.40;99.90;;;;;;5075486;28;20444;-76
2022/12/03 04:37:19;;;;;;;32.90;26.00;;;2.40;99.90;;;;;;5074737;28;20439;-76
2022/12/03 04:39:47;;;;;;;38.27;29.30;;;2.40;99.90;;;;;;5075029;28;20451;-76
2022/12/03 04:42:15;;;;;;;34.47;26.43;;;2.30;99.90;;;;;;5074630;28;20444;-76
2022/12/03 04:44:45;;;;;;;36.90;28.97;;;2.30;99.90;;;;;;5073693;28;20456;-76
2022/12/03 04:47:15;;;;;;;36.87;26.87;;;2.30;99.90;;;;;;5073281;28;20459;-76
2022/12/03 04:49:44;;;;;;;33.70;25.83;;;2.30;99.90;;;;;;5073231;28;20452;-76
2022/12/03 04:52:14;;;;;;;33.33;26.90;;;2.30;99.90;;;;;;5075043;28;20522;-76
2022/12/03 04:54:43;;;;;;;35.50;27.60;;;2.30;99.90;;;;;;5074644;28;20461;-76
2022/12/03 04:57:12;;;;;;;32.63;26.50;;;2.20;99.90;;;;;;5074352;28;20940;-76
2022/12/03 04:59:40;;;;;;;36.20;27.90;;;2.20;99.90;;;;;;5074267;28;20485;-76
2022/12/03 05:02:09;;;;;;;32.03;26.03;;;2.20;99.90;;;;;;5073462;28;20475;-76
2022/12/03 05:04:38;;;;;;;33.73;26.50;;;2.20;99.90;;;;;;5070078;28;20480;-76
2022/12/03 05:07:06;;;;;;;34.07;26.57;;;2.20;99.90;;;;;;5072898;28;20954;-76
2022/12/03 05:09:34;;;;;;;37.63;28.33;;;2.10;99.90;;;;;;5074378;28;20448;-76
2022/12/03 05:12:02;;;;;;;37.97;28.43;;;2.10;99.90;;;;;;5072764;28;20497;-76
2022/12/03 05:14:30;;;;;;;36.70;27.13;;;2.10;99.90;;;;;;5074245;28;20850;-76
2022/12/03 05:16:59;;;;;;;33.03;26.93;;;2.10;99.90;;;;;;5072736;28;20449;-76
2022/12/03 05:22:10;;;;;;;35.20;27.30;;;2.10;99.90;;;;;;5073725;28;20441;-76
2022/12/03 05:24:38;;;;;;;34.43;27.10;;;2.10;99.90;;;;;;5073740;28;20989;-76
2022/12/03 05:27:06;;;;;;;34.03;27.07;;;2.10;99.90;;;;;;5073818;28;20504;-76
2022/12/03 05:29:34;;;;;;;35.83;26.77;;;2.10;99.90;;;;;;5074300;28;20430;-76
2022/12/03 05:32:02;;;;;;;34.50;27.23;;;2.10;99.90;;;;;;5073663;28;20481;-76
2022/12/03 05:34:31;;;;;;;34.70;28.77;;;2.10;99.90;;;;;;5072440;28;20516;-76
2022/12/03 05:37:00;;;;;;;35.33;27.63;;;2.10;99.90;;;;;;5072424;28;20507;-76
2022/12/03 05:39:28;;;;;;;36.67;28.53;;;2.00;99.90;;;;;;5073499;28;20476;-76
2022/12/03 05:44:41;;;;;;;32.47;26.53;;;2.00;99.90;;;;;;5073828;28;20525;-76
2022/12/03 05:47:09;;;;;;;33.13;26.53;;;2.00;99.90;;;;;;5072549;28;20497;-76
2022/12/03 05:49:38;;;;;;;35.83;24.63;;;1.90;99.90;;;;;;5072181;28;20445;-76
2022/12/03 05:52:06;;;;;;;33.63;27.20;;;1.90;99.90;;;;;;5072796;28;20438;-76
2022/12/03 05:54:35;;;;;;;34.40;27.00;;;1.90;99.90;;;;;;5069830;28;20474;-76
2022/12/03 05:57:03;;;;;;;34.37;26.80;;;1.90;99.90;;;;;;5073724;28;20444;-76
2022/12/03 05:59:31;;;;;;;32.80;27.90;;;1.80;99.90;;;;;;5073691;28;20823;-76
2022/12/03 06:01:59;;;;;;;34.70;27.37;;;1.80;99.90;;;;;;5073675;28;20492;-75
2022/12/03 06:04:27;;;;;;;36.33;28.83;;;1.80;99.90;;;;;;5073304;28;21030;-76
2022/12/03 06:06:56;;;;;;;33.27;26.60;;;1.80;99.90;;;;;;5073391;28;20443;-76
2022/12/03 06:09:25;;;;;;;33.70;25.67;;;1.80;99.90;;;;;;5073600;28;20491;-76
2022/12/03 06:11:53;;;;;;;34.23;28.03;;;1.70;99.90;;;;;;5072125;28;20459;-76
2022/12/03 06:14:21;;;;;;;39.20;29.20;;;1.70;99.90;;;;;;5073537;28;20880;-76
2022/12/03 06:16:49;;;;;;;35.97;28.23;;;1.70;99.90;;;;;;5072013;28;20441;-76
2022/12/03 06:19:17;;;;;;;38.53;28.23;;;1.70;99.90;;;;;;5072006;28;20803;-76
2022/12/03 06:21:46;;;;;;;37.23;30.10;;;1.70;99.90;;;;;;5071904;28;20955;-76
2022/12/03 06:24:15;;;;;;;38.67;30.40;;;1.70;99.90;;;;;;5073089;28;20484;-76
2022/12/03 06:26:43;;;;;;;37.53;28.33;;;1.70;99.90;;;;;;5071890;28;20449;-76
2022/12/03 06:29:12;;;;;;;38.67;29.30;;;1.70;99.90;;;;;;5071768;28;20449;-76
2022/12/03 06:31:40;;;;;;;39.90;29.40;;;1.70;99.90;;;;;;5071614;28;20445;-76
2022/12/03 06:34:08;;;;;;;38.47;29.87;;;1.60;99.90;;;;;;5073174;28;20465;-77
2022/12/03 06:36:36;;;;;;;40.33;31.30;;;1.60;99.90;;;;;;5074508;28;20495;-76
2022/12/03 06:39:04;;;;;;;41.67;29.87;;;1.60;99.90;;;;;;5076427;28;20501;-77
2022/12/03 06:41:34;;;;;;;38.43;28.50;;;1.60;99.90;;;;;;5075289;28;20435;-78
2022/12/03 06:44:02;;;;;;;37.97;26.03;;;1.60;99.90;;;;;;5070851;28;20484;-76
2022/12/03 06:46:30;;;;;;;43.90;31.20;;;1.60;99.90;;;;;;5073830;28;20448;-77
2022/12/03 06:48:59;;;;;;;35.70;29.23;;;1.60;99.90;;;;;;5074982;28;20904;-76
2022/12/03 06:51:27;;;;;;;41.17;28.80;;;1.60;99.90;;;;;;5073734;28;20876;-76
2022/12/03 06:53:55;;;;;;;41.37;28.70;;;1.50;99.90;;;;;;5071641;28;20469;-76
2022/12/03 06:56:23;;;;;;;39.87;29.23;;;1.50;99.90;;;;;;5072437;28;20458;-77
2022/12/03 06:58:55;;;;;;;42.57;31.47;;;1.50;99.90;;;;;;5078675;28;20469;-76
2022/12/03 07:01:23;;;;;;;43.30;31.10;;;1.50;99.90;;;;;;5075910;28;20822;-76
2022/12/03 07:03:51;;;;;;;43.00;32.70;;;1.50;99.90;;;;;;5073246;28;20496;-76
2022/12/03 07:06:19;;;;;;;40.43;31.90;;;1.50;99.90;;;;;;5072659;28;20461;-78
2022/12/03 07:08:47;;;;;;;39.57;27.90;;;1.50;99.90;;;;;;5076325;28;20978;-76
2022/12/03 07:11:38;;;;;;;45.03;32.70;;;1.50;99.90;;;;;;5076864;28;20445;-77
2022/12/03 07:14:09;;;;;;;44.43;30.47;;;1.40;99.90;;;;;;5075023;28;20466;-77
2022/12/03 07:16:39;;;;;;;36.73;28.33;;;1.40;99.90;;;;;;5075318;28;20500;-76
2022/12/03 07:19:07;;;;;;;42.00;28.40;;;1.40;99.90;;;;;;5074996;28;20473;-76
2022/12/03 07:21:35;;;;;;;41.03;29.40;;;1.40;99.90;;;;;;5076247;28;20441;-77
2022/12/03 07:24:04;;;;;;;43.67;37.72;;;1.40;99.90;;;;;;5080131;28;20449;-76
2022/12/03 07:26:32;;;;;;;39.77;31.70;;;1.50;99.90;;;;;;5077789;28;20198;-76
2022/12/03 07:29:01;;;;;;;43.90;32.50;;;1.50;99.90;;;;;;5075279;28;20799;-76
2022/12/03 07:31:30;;;;;;;42.63;31.03;;;1.40;99.90;;;;;;5076147;28;20444;-77
2022/12/03 07:34:10;;;;;;;44.23;31.30;;;1.50;99.90;;;;;;5070903;28;20528;-77
2022/12/03 07:36:48;;;;;;;42.27;31.03;;;1.40;99.90;;;;;;5060929;28;20446;-77
2022/12/03 07:39:16;;;;;;;45.80;31.53;;;1.40;99.90;;;;;;5074538;28;20985;-77
2022/12/03 07:41:44;;;;;;;43.77;33.40;;;1.40;99.90;;;;;;5074654;28;20456;-78
2022/12/03 07:44:13;;;;;;;44.37;30.93;;;1.40;99.90;;;;;;5075885;28;20467;-78
2022/12/03 07:46:43;;;;;;;43.03;34.60;;;1.40;99.90;;;;;;5076017;28;20453;-77
2022/12/03 07:49:12;;;;;;;44.50;31.20;;;1.40;99.90;;;;;;5074542;28;20450;-77
2022/12/03 07:51:40;;;;;;;46.67;30.87;;;1.40;99.90;;;;;;5074715;28;20485;-77
2022/12/03 07:54:08;;;;;;;43.60;33.63;;;1.40;99.90;;;;;;5076237;28;20472;-77
2022/12/03 07:56:36;;;;;;;40.80;31.73;;;1.40;99.90;;;;;;5076248;28;20438;-77
2022/12/03 07:59:04;;;;;;;42.13;32.77;;;1.40;99.90;;;;;;5074981;28;20467;-77
2022/12/03 08:01:32;;;;;;;43.93;35.93;;;1.40;99.90;;;;;;5075431;28;20438;-77
2022/12/03 08:04:02;;;;;;;42.73;32.47;;;1.40;99.90;;;;;;5076061;28;20473;-76
2022/12/03 08:06:30;;;;;;;41.77;32.30;;;1.40;99.90;;;;;;5074276;28;20461;-77
2022/12/03 08:08:58;;;;;;;50.50;34.63;;;1.40;99.90;;;;;;5075782;28;20455;-77
2022/12/03 08:11:29;;;;;;;43.60;33.03;;;1.40;99.90;;;;;;5075458;28;20460;-77
2022/12/03 08:13:58;;;;;;;41.70;32.77;;;1.40;99.90;;;;;;5075331;28;20557;-76
2022/12/03 08:16:26;;;;;;;47.07;35.47;;;1.40;99.90;;;;;;5071977;28;20451;-76
2022/12/03 08:18:56;;;;;;;44.50;32.00;;;1.50;99.90;;;;;;5075583;28;20480;-77
2022/12/03 08:21:36;;;;;;;42.27;31.53;;;1.50;99.90;;;;;;5075502;28;20445;-77
2022/12/03 08:24:13;;;;;;;43.27;30.30;;;1.50;99.90;;;;;;5075463;28;20487;-77
2022/12/03 08:26:43;;;;;;;45.03;33.23;;;1.50;99.90;;;;;;5073869;28;20438;-76
2022/12/03 08:29:13;;;;;;;45.80;34.50;;;1.50;99.90;;;;;;5074860;28;20438;-76
2022/12/03 08:31:45;;;;;;;43.90;31.63;;;1.50;99.90;;;;;;5074866;28;20455;-77
2022/12/03 08:34:18;;;;;;;44.50;33.20;;;1.50;99.90;;;;;;5075217;28;20497;-77
2022/12/03 08:36:50;;;;;;;42.57;34.27;;;1.50;99.90;;;;;;5073640;28;20931;-77
2022/12/03 08:39:29;;;;;;;48.03;34.90;;;1.50;99.90;;;;;;5073428;28;20445;-76
2022/12/03 08:44:54;;;;;;;43.37;34.00;;;1.50;99.90;;;;;;5073511;28;20479;-76
2022/12/03 08:47:24;;;;;;;43.60;31.20;;;1.50;99.90;;;;;;5074956;28;20449;-77
2022/12/03 08:49:56;;;;;;;43.40;33.70;;;1.60;99.90;;;;;;5073362;28;20441;-78
2022/12/03 08:52:34;;;;;;;42.03;30.80;;;1.60;99.90;;;;;;5074700;28;20422;-77
2022/12/03 08:55:28;;;;;;;41.03;32.73;;;1.60;99.90;;;;;;5074994;28;20818;-77
2022/12/03 08:57:57;;;;;;;44.90;34.10;;;1.60;99.90;;;;;;5074691;28;20488;-78
2022/12/03 09:00:25;;;;;;;43.10;32.63;;;1.50;99.90;;;;;;5072973;28;20476;-78
2022/12/03 09:02:58;;;;;;;44.50;34.80;;;1.60;99.90;;;;;;5073053;28;20441;-77
2022/12/03 09:05:31;;;;;;;49.70;33.67;;;1.60;99.90;;;;;;5071247;28;20462;-78
2022/12/03 09:08:00;;;;;;;45.10;32.10;;;1.60;99.90;;;;;;5075184;28;20469;-78
2022/12/03 09:10:29;;;;;;;44.07;35.13;;;1.60;99.90;;;;;;5074566;28;20433;-78
2022/12/03 09:12:57;;;;;;;43.17;34.27;;;1.60;99.90;;;;;;5074210;28;20975;-77
2022/12/03 09:15:25;;;;;;;47.47;33.57;;;1.60;99.90;;;;;;5072858;28;20473;-76
2022/12/03 09:17:53;;;;;;;45.87;34.07;;;1.60;99.90;;;;;;5073108;28;20965;-77
2022/12/03 09:20:21;;;;;;;43.60;36.80;;;1.50;99.90;;;;;;5074143;28;20479;-77
2022/12/03 09:22:49;;;;;;;43.63;30.60;;;1.60;99.90;;;;;;5072784;28;21046;-77
2022/12/03 09:25:19;;;;;;;45.63;35.50;;;1.50;99.90;;;;;;5074003;28;20461;-77
2022/12/03 09:27:47;;;;;;;44.83;33.10;;;1.50;99.90;;;;;;5073941;28;20438;-77
2022/12/03 09:30:16;;;;;;;44.73;35.93;;;1.50;99.90;;;;;;5072240;28;21010;-77
2022/12/03 09:32:44;;;;;;;46.03;35.33;;;1.50;99.90;;;;;;5072704;28;20954;-77
2022/12/03 09:35:12;;;;;;;47.93;34.43;;;1.50;99.90;;;;;;5072639;28;20474;-77
2022/12/03 09:37:40;;;;;;;45.87;33.00;;;1.50;99.90;;;;;;5073965;28;20497;-78
2022/12/03 09:40:10;;;;;;;41.53;31.23;;;1.50;99.90;;;;;;5072447;28;20531;-77
2022/12/03 09:42:40;;;;;;;45.73;33.80;;;1.40;99.90;;;;;;5072498;28;20548;-78
2022/12/03 09:45:13;;;;;;;48.60;35.20;;;1.40;99.90;;;;;;5072319;28;20522;-78
2022/12/03 09:47:44;;;;;;;43.27;32.07;;;1.40;99.90;;;;;;5073649;28;20431;-78
2022/12/03 09:50:16;;;;;;;43.00;34.73;;;1.40;99.90;;;;;;5072444;28;20453;-78
2022/12/03 09:52:45;;;;;;;49.17;34.53;;;1.40;99.90;;;;;;5072376;28;20441;-78
2022/12/03 09:55:17;;;;;;;49.00;33.13;;;1.40;99.90;;;;;;5070559;28;20905;-77
2022/12/03 09:57:46;;;;;;;43.63;32.87;;;1.40;99.90;;;;;;5071872;28;20433;-77
2022/12/03 10:00:17;;;;;;;41.53;31.60;;;1.40;99.90;;;;;;5072066;28;20475;-77
2022/12/03 10:02:46;;;;;;;42.40;32.20;;;1.40;99.90;;;;;;5073639;28;20434;-77
2022/12/03 10:05:15;;;;;;;42.40;31.13;;;1.40;99.90;;;;;;5071969;28;20477;-77
2022/12/03 10:07:43;;;;;;;42.80;34.77;;;1.40;99.90;;;;;;5071977;28;20958;-77
2022/12/03 10:10:15;;;;;;;43.10;32.63;;;1.40;99.90;;;;;;5073449;28;20539;-77
2022/12/03 10:12:45;;;;;;;43.60;30.77;;;1.40;99.90;;;;;;5072033;28;20438;-77
2022/12/03 10:15:16;;;;;;;43.90;33.80;;;1.40;99.90;;;;;;5072084;28;20466;-77
2022/12/03 10:17:45;;;;;;;43.50;31.83;;;1.40;99.90;;;;;;5073405;28;20429;-77
2022/12/03 10:20:16;;;;;;;44.83;32.70;;;1.40;99.90;;;;;;5071899;28;20441;-77
2022/12/03 10:22:47;;;;;;;44.50;34.10;;;1.40;99.90;;;;;;5071930;28;20450;-77
2022/12/03 10:25:17;;;;;;;45.10;31.90;;;1.50;99.90;;;;;;5071915;28;20495;-77
2022/12/03 10:27:56;;;;;;;41.83;33.87;;;1.50;99.90;;;;;;5073442;28;20417;-77
2022/12/03 10:30:27;;;;;;;45.20;34.77;;;1.50;99.90;;;;;;5073439;28;20477;-77
2022/12/03 10:32:57;;;;;;;42.33;33.73;;;1.50;99.90;;;;;;5076256;28;20802;-77
2022/12/03 10:35:36;;;;;;;43.67;34.70;;;1.50;99.90;;;;;;5072974;28;20521;-77
2022/12/03 10:38:05;;;;;;;45.27;33.80;;;1.50;99.90;;;;;;5073176;28;20445;-77
2022/12/03 10:40:35;;;;;;;44.83;34.47;;;1.50;99.90;;;;;;5072064;28;20472;-78
2022/12/03 10:43:16;;;;;;;43.37;30.27;;;1.60;99.90;;;;;;5075324;28;20449;-78
2022/12/03 10:45:45;;;;;;;42.30;34.47;;;1.60;99.90;;;;;;5073119;28;21004;-78
2022/12/03 10:48:15;;;;;;;43.33;31.10;;;1.60;99.90;;;;;;5075914;28;20481;-78
2022/12/03 10:50:51;;;;;;;41.30;33.70;;;1.60;99.90;;;;;;5075972;28;20448;-77
2022/12/03 10:53:21;;;;;;;40.43;31.10;;;1.60;99.90;;;;;;5076987;28;20417;-77
2022/12/03 10:55:51;;;;;;;41.70;32.43;;;1.60;99.90;;;;;;5077091;28;20445;-77
2022/12/03 10:58:23;;;;;;;37.67;30.40;;;1.70;99.90;;;;;;5077051;28;20449;-77
2022/12/03 11:00:54;;;;;;;42.70;32.20;;;1.70;99.90;;;;;;5075581;28;20831;-77
2022/12/03 11:03:24;;;;;;;40.30;32.30;;;1.70;99.90;;;;;;5077057;28;20457;-77
2022/12/03 11:05:55;;;;;;;44.90;34.93;;;1.70;99.90;;;;;;5075705;28;20917;-77
2022/12/03 11:08:25;;;;;;;41.70;33.13;;;1.70;99.90;;;;;;5075322;28;20443;-77
2022/12/03 11:10:57;;;;;;;39.67;33.00;;;1.70;99.90;;;;;;5075263;28;20443;-77
2022/12/03 11:13:53;;;;;;;40.80;32.03;;;1.70;99.90;;;;;;5076799;28;20457;-77
2022/12/03 11:17:07;;;;;;;41.60;33.20;;;1.80;99.90;;;;;;5075262;28;20431;-77
2022/12/03 11:19:58;;;;;;;39.43;31.33;;;1.80;99.90;;;;;;5075379;28;20543;-77
2022/12/03 11:22:40;;;;;;;39.37;31.33;;;1.80;99.90;;;;;;5072474;28;20479;-77
2022/12/03 11:25:35;;;;;;;39.53;29.80;;;1.80;99.90;;;;;;5075091;28;20457;-77
2022/12/03 11:28:54;;;;;;;41.30;30.30;;;1.80;99.90;;;;;;5076339;28;20444;-77
2022/12/03 11:31:46;;;;;;;44.47;31.43;;;1.80;99.90;;;;;;4997840;28;20475;-78
2022/12/03 11:34:47;;;;;;;43.17;31.27;;;1.80;99.90;;;;;;5000937;28;20515;-78
2022/12/03 11:37:26;;;;;;;37.60;29.13;;;1.80;99.90;;;;;;5072774;28;20994;-78
2022/12/03 11:40:28;;;;;;;39.87;32.20;;;1.80;99.90;;;;;;5081619;28;20495;-78
2022/12/03 11:43:01;;;;;;;36.17;27.93;;;1.80;99.90;;;;;;5078339;28;20479;-78
2022/12/03 11:45:35;;;;;;;39.50;32.00;;;1.90;99.90;;;;;;5080007;28;21025;-78
2022/12/03 11:48:13;;;;;;;39.80;32.27;;;1.90;99.90;;;;;;5079838;28;20449;-78
2022/12/03 11:50:43;;;;;;;38.60;31.23;;;1.90;99.90;;;;;;5078263;28;20954;-78
2022/12/03 11:53:16;;;;;;;36.03;30.47;;;2.00;99.90;;;;;;5075260;28;20460;-78
2022/12/03 11:55:47;;;;;;;43.37;33.53;;;2.00;99.90;;;;;;5075193;28;20543;-78
2022/12/03 11:58:19;;;;;;;41.20;32.07;;;2.10;99.90;;;;;;5077322;28;20427;-78
2022/12/03 12:00:49;;;;;;;36.03;31.10;;;2.10;99.90;;;;;;5075374;28;20434;-78
2022/12/03 12:03:27;;;;;;;32.27;25.70;;;2.10;99.90;;;;;;5077310;28;20436;-78
2022/12/03 12:06:04;;;;;;;36.30;28.07;;;2.20;99.90;;;;;;5075391;28;20450;-78
2022/12/03 12:08:39;;;;;;;31.50;27.03;;;2.20;99.90;;;;;;5075274;28;20517;-78
2022/12/03 12:11:17;;;;;;;32.47;25.40;;;2.20;99.90;;;;;;5075695;28;20458;-78
2022/12/03 12:13:50;;;;;;;28.23;22.87;;;2.20;99.90;;;;;;5076315;28;20457;-78
2022/12/03 12:16:52;;;;;;;31.70;25.17;;;2.30;99.90;;;;;;5076818;28;20513;-78
2022/12/03 12:19:45;;;;;;;29.90;23.40;;;2.20;99.90;;;;;;5067141;28;20458;-78
2022/12/03 12:22:30;;;;;;;31.17;24.57;;;2.20;99.90;;;;;;5075913;28;20462;-78
2022/12/03 12:25:00;;;;;;;31.10;24.90;;;2.30;99.90;;;;;;5076596;28;20457;-78
2022/12/03 12:27:38;;;;;;;27.70;24.30;;;2.20;99.90;;;;;;5071300;28;20465;-78
2022/12/03 12:30:08;;;;;;;34.10;26.73;;;2.20;99.90;;;;;;5073963;28;20449;-78
2022/12/03 12:32:45;;;;;;;33.10;29.00;;;2.20;99.90;;;;;;5074378;28;20437;-78
2022/12/03 12:35:17;;;;;;;33.90;27.13;;;2.20;99.90;;;;;;5074509;28;20839;-78
2022/12/03 12:37:49;;;;;;;34.37;28.70;;;2.20;99.90;;;;;;5075615;28;20861;-78
2022/12/03 12:40:29;;;;;;;36.30;27.50;;;2.30;99.90;;;;;;5076234;28;20483;-78
2022/12/03 12:42:59;;;;;;;34.90;28.33;;;2.30;99.90;;;;;;5074564;28;20835;-78
2022/12/03 12:45:35;;;;;;;32.10;25.73;;;2.30;99.90;;;;;;5075344;28;20425;-78
2022/12/03 12:48:14;;;;;;;30.23;23.97;;;2.30;99.90;;;;;;5075210;28;20515;-78
2022/12/03 12:50:46;;;;;;;30.17;24.53;;;2.30;99.90;;;;;;5073783;28;20435;-78
2022/12/03 12:53:21;;;;;;;29.67;23.73;;;2.20;99.90;;;;;;5075363;28;20476;-78
2022/12/03 12:55:56;;;;;;;27.70;21.80;;;2.30;99.90;;;;;;5073711;28;20538;-78
2022/12/03 12:58:26;;;;;;;25.70;20.77;;;2.30;99.90;;;;;;5074607;28;20434;-78
2022/12/03 13:00:55;;;;;;;26.87;21.57;;;2.30;99.90;;;;;;5075533;28;20808;-78
2022/12/03 13:03:26;;;;;;;27.43;20.80;;;2.30;99.90;;;;;;5076536;28;20473;-78
2022/12/03 13:05:57;;;;;;;26.20;20.97;;;2.30;99.90;;;;;;5074838;28;20418;-78
2022/12/03 13:08:28;;;;;;;27.17;23.07;;;2.30;99.90;;;;;;5074899;28;20439;-78
2022/12/03 13:10:59;;;;;;;26.50;21.00;;;2.30;99.90;;;;;;5073395;28;20433;-78
2022/12/03 13:13:37;;;;;;;28.90;22.60;;;2.30;99.90;;;;;;5075447;28;20459;-78
2022/12/03 13:16:17;;;;;;;26.10;21.33;;;2.30;99.90;;;;;;5072981;28;20456;-78
2022/12/03 13:18:48;;;;;;;27.20;21.70;;;2.30;99.90;;;;;;5075380;28;20491;-78
2022/12/03 13:21:23;;;;;;;25.50;21.03;;;2.30;99.90;;;;;;5075853;28;20927;-78